Time;durP1;ratioP1;P1;durP2;ratioP2;P2;SDS_P1;SDS_P2;PMS_P1;PMS_P2;Temp;Humidity;BMP_temperature;BMP_pressure;BME280_temperature;BME280_humidity;BME280_pressure;Samples;Min_cycle;Max_cycle;Signal;HPM_P1;HPM_P2
2022/02/17 00:00:59;;;;;;;12.25;2.13;;;11.50;96.00;;;;;;2049175;29;20036;-92
2022/02/17 00:02:19;;;;;;;9.50;2.25;;;11.60;96.00;;;;;;2054526;28;20042;-93
2022/02/17 00:03:38;;;;;;;9.30;2.10;;;11.60;96.00;;;;;;2065277;28;20034;-94
2022/02/17 00:04:57;;;;;;;11.07;2.28;;;11.60;96.00;;;;;;2056832;28;20034;-93
2022/02/17 00:06:16;;;;;;;11.85;2.22;;;11.60;96.00;;;;;;2074554;28;20050;-92
2022/02/17 00:07:36;;;;;;;11.25;2.00;;;11.60;96.00;;;;;;2050671;28;20043;-93
2022/02/17 00:08:56;;;;;;;14.70;2.50;;;11.50;95.90;;;;;;2055685;28;20035;-93
2022/02/17 00:10:16;;;;;;;12.15;1.90;;;11.60;95.90;;;;;;2049038;28;20043;-93
2022/02/17 00:11:39;;;;;;;11.02;2.53;;;11.60;95.90;;;;;;2048431;28;20039;-94
2022/02/17 00:13:00;;;;;;;11.75;2.08;;;11.60;95.90;;;;;;2055130;28;20047;-93
2022/02/17 00:14:19;;;;;;;8.38;1.70;;;11.60;95.90;;;;;;2055486;28;20039;-92
2022/02/17 00:15:38;;;;;;;8.93;1.75;;;11.60;95.90;;;;;;2052471;28;20039;-93
2022/02/17 00:16:58;;;;;;;6.25;1.80;;;11.60;95.90;;;;;;2063187;28;20042;-93
2022/02/17 00:18:23;;;;;;;9.05;1.88;;;11.60;95.90;;;;;;2079572;28;20037;-93
2022/02/17 00:19:43;;;;;;;12.18;2.53;;;11.60;95.90;;;;;;2067062;28;20039;-94
2022/02/17 00:21:02;;;;;;;11.45;2.17;;;11.60;95.90;;;;;;2060041;28;20046;-93
2022/02/17 00:22:21;;;;;;;9.65;1.90;;;11.60;95.80;;;;;;2064373;28;20046;-92
2022/02/17 00:23:41;;;;;;;9.10;1.98;;;11.60;95.80;;;;;;2062217;28;20038;-93
2022/02/17 00:25:00;;;;;;;8.10;1.87;;;11.60;95.80;;;;;;2059037;28;20035;-93
2022/02/17 00:26:20;;;;;;;9.02;2.20;;;11.60;95.80;;;;;;2060898;28;20124;-94
2022/02/17 00:27:39;;;;;;;9.60;1.83;;;11.60;95.70;;;;;;2064455;28;20061;-94
2022/02/17 00:28:59;;;;;;;12.63;2.03;;;11.60;95.70;;;;;;2056209;28;20050;-94
2022/02/17 00:30:18;;;;;;;10.88;2.00;;;11.60;95.70;;;;;;2061895;28;20476;-93
2022/02/17 00:31:41;;;;;;;10.35;1.73;;;11.60;95.70;;;;;;2064567;28;20042;-92
2022/02/17 00:33:01;;;;;;;10.77;2.28;;;11.60;95.60;;;;;;2057355;28;20043;-94
2022/02/17 00:34:20;;;;;;;8.32;1.70;;;11.60;95.80;;;;;;2055768;28;20062;-93
2022/02/17 00:35:40;;;;;;;6.90;1.70;;;11.60;95.60;;;;;;2052145;28;20122;-92
2022/02/17 00:36:59;;;;;;;10.00;2.33;;;11.60;95.60;;;;;;2053405;28;20093;-93
2022/02/17 00:38:19;;;;;;;10.50;2.38;;;11.60;95.60;;;;;;2052259;28;20039;-94
2022/02/17 00:39:38;;;;;;;11.40;2.35;;;11.60;95.50;;;;;;2060658;28;20039;-93
2022/02/17 00:40:57;;;;;;;10.77;1.92;;;11.50;95.50;;;;;;2057200;28;20524;-93
2022/02/17 00:42:17;;;;;;;11.20;2.15;;;11.50;95.40;;;;;;2064308;28;20043;-93
2022/02/17 00:43:36;;;;;;;9.43;2.10;;;11.50;95.40;;;;;;2061805;28;20505;-93
2022/02/17 00:44:55;;;;;;;9.20;2.33;;;11.50;95.40;;;;;;2056579;28;20031;-93
2022/02/17 00:46:15;;;;;;;6.32;1.40;;;11.50;95.40;;;;;;2058272;28;20484;-93
2022/02/17 00:47:34;;;;;;;7.80;1.85;;;11.50;95.50;;;;;;2053600;28;20027;-93
2022/02/17 00:48:54;;;;;;;10.95;1.63;;;11.40;95.40;;;;;;2045432;29;20107;-93
2022/02/17 00:50:13;;;;;;;8.23;1.90;;;11.40;95.30;;;;;;2055990;28;20042;-93
2022/02/17 00:51:33;;;;;;;11.82;2.13;;;11.40;95.40;;;;;;2064986;28;20042;-93
2022/02/17 00:52:53;;;;;;;7.50;1.70;;;11.40;95.30;;;;;;2057152;28;20042;-93
2022/02/17 00:54:12;;;;;;;9.15;1.65;;;11.40;95.30;;;;;;2048685;28;20572;-94
2022/02/17 00:55:31;;;;;;;10.10;1.90;;;11.40;95.40;;;;;;2053449;28;20465;-93
2022/02/17 00:56:50;;;;;;;10.18;2.08;;;11.40;95.30;;;;;;2053901;28;20047;-92
2022/02/17 00:58:10;;;;;;;10.77;2.05;;;11.40;95.30;;;;;;2069163;28;20047;-93
2022/02/17 00:59:29;;;;;;;7.07;1.65;;;11.40;95.20;;;;;;2056552;28;20054;-93
2022/02/17 01:00:48;;;;;;;8.05;1.52;;;11.40;95.30;;;;;;2058671;28;20039;-93
2022/02/17 01:02:07;;;;;;;9.30;1.90;;;11.40;95.20;;;;;;2053134;28;20047;-94
2022/02/17 01:03:27;;;;;;;6.97;1.90;;;11.40;95.20;;;;;;2053363;28;20074;-94
2022/02/17 01:04:46;;;;;;;9.25;2.22;;;11.40;95.20;;;;;;2049003;28;20474;-94
2022/02/17 01:06:06;;;;;;;10.35;1.98;;;11.40;95.20;;;;;;2049505;28;20051;-94
2022/02/17 01:07:25;;;;;;;11.48;2.30;;;11.40;95.10;;;;;;2068278;28;20044;-94
2022/02/17 01:08:45;;;;;;;8.65;1.88;;;11.40;95.10;;;;;;2060790;28;20082;-94
2022/02/17 01:10:05;;;;;;;10.05;2.40;;;11.40;95.10;;;;;;2048594;28;20043;-93
2022/02/17 01:11:24;;;;;;;7.22;1.92;;;11.40;95.10;;;;;;2060233;28;20041;-94
2022/02/17 01:12:43;;;;;;;9.52;1.85;;;11.40;95.20;;;;;;2066874;28;20037;-94
2022/02/17 01:14:06;;;;;;;9.90;2.55;;;11.30;95.20;;;;;;2049819;28;20043;-94
2022/02/17 01:15:25;;;;;;;12.27;2.40;;;11.30;95.20;;;;;;2061972;28;20027;-93
2022/02/17 01:16:45;;;;;;;10.88;2.30;;;11.30;95.20;;;;;;2056072;28;20051;-93
2022/02/17 01:18:04;;;;;;;10.63;2.63;;;11.20;95.20;;;;;;2051412;28;20110;-93
2022/02/17 01:19:24;;;;;;;10.93;2.08;;;11.10;95.20;;;;;;2061522;28;20038;-94
2022/02/17 01:20:43;;;;;;;8.75;1.70;;;11.10;95.30;;;;;;2056091;28;20039;-93
2022/02/17 01:22:03;;;;;;;7.50;1.70;;;11.00;95.30;;;;;;2050094;28;20134;-93
2022/02/17 01:23:22;;;;;;;9.43;1.77;;;11.00;95.30;;;;;;2061513;28;20496;-93
2022/02/17 01:24:41;;;;;;;8.38;1.88;;;10.90;95.20;;;;;;2065650;28;20046;-93
2022/02/17 01:26:00;;;;;;;10.75;1.70;;;10.80;95.00;;;;;;2065093;28;20046;-92
2022/02/17 01:27:19;;;;;;;6.00;1.80;;;10.80;94.90;;;;;;2079759;28;20478;-93
2022/02/17 01:28:39;;;;;;;7.90;1.48;;;10.70;94.90;;;;;;2070788;28;20516;-94
2022/02/17 01:29:58;;;;;;;7.03;1.40;;;10.70;94.80;;;;;;2060600;28;20046;-94
2022/02/17 01:31:20;;;;;;;8.00;1.42;;;10.60;94.70;;;;;;2068805;28;20078;-93
2022/02/17 01:32:39;;;;;;;7.18;1.20;;;10.60;94.80;;;;;;2052654;28;20046;-93
2022/02/17 01:33:59;;;;;;;8.30;1.17;;;10.50;94.80;;;;;;2062989;28;20571;-93
2022/02/17 01:35:19;;;;;;;6.47;1.48;;;10.40;94.80;;;;;;2057093;28;20066;-95
2022/02/17 01:36:38;;;;;;;5.80;1.40;;;10.40;94.70;;;;;;2063111;28;20399;-93
2022/02/17 01:37:58;;;;;;;7.47;1.20;;;10.40;94.80;;;;;;2066189;28;20408;-93
2022/02/17 01:39:17;;;;;;;7.30;1.30;;;10.40;94.70;;;;;;2066438;28;20047;-93
2022/02/17 01:40:36;;;;;;;7.47;1.35;;;10.30;94.70;;;;;;2057767;28;20425;-94
2022/02/17 01:41:55;;;;;;;8.32;1.50;;;10.30;94.90;;;;;;2061854;28;20046;-94
2022/02/17 01:43:16;;;;;;;10.35;1.77;;;10.30;94.60;;;;;;2061554;28;20038;-93
2022/02/17 01:44:36;;;;;;;7.75;1.65;;;10.30;94.60;;;;;;2057593;28;20129;-92
2022/02/17 01:45:56;;;;;;;7.93;2.10;;;10.30;94.50;;;;;;2050849;29;20031;-93
2022/02/17 01:47:16;;;;;;;8.93;1.92;;;10.30;94.40;;;;;;2049063;28;20047;-95
2022/02/17 01:48:36;;;;;;;7.72;1.58;;;10.30;94.30;;;;;;2052176;28;20071;-93
2022/02/17 01:49:55;;;;;;;7.45;1.42;;;10.30;94.30;;;;;;2058655;28;20047;-94
2022/02/17 01:51:15;;;;;;;9.93;1.90;;;10.30;94.50;;;;;;2058838;28;20035;-93
2022/02/17 01:52:34;;;;;;;9.63;2.08;;;10.30;94.50;;;;;;2040569;28;20044;-94
2022/02/17 01:53:53;;;;;;;7.15;1.52;;;10.40;94.20;;;;;;2057035;28;20516;-93
2022/02/17 01:55:13;;;;;;;8.95;1.48;;;10.40;94.20;;;;;;2041910;28;20115;-93
2022/02/17 01:56:34;;;;;;;10.00;2.05;;;10.40;94.20;;;;;;2046962;28;20541;-93
2022/02/17 01:57:53;;;;;;;11.23;2.08;;;10.40;94.20;;;;;;2056909;28;20031;-94
2022/02/17 01:59:13;;;;;;;17.47;1.97;;;10.40;94.10;;;;;;2066607;28;20038;-95
2022/02/17 02:00:33;;;;;;;10.55;2.00;;;10.40;94.10;;;;;;2049772;28;20255;-93
2022/02/17 02:01:52;;;;;;;10.02;2.00;;;10.40;94.10;;;;;;2057607;28;20060;-93
2022/02/17 02:03:13;;;;;;;10.38;2.53;;;10.40;94.00;;;;;;2064721;28;20042;-94
2022/02/17 02:04:32;;;;;;;10.27;2.25;;;10.40;94.00;;;;;;2055689;28;20047;-96
2022/02/17 02:05:52;;;;;;;8.50;1.83;;;10.50;94.10;;;;;;2088873;28;20450;-94
2022/02/17 02:07:12;;;;;;;12.35;2.08;;;10.50;94.00;;;;;;2106676;28;20048;-93
2022/02/17 02:08:31;;;;;;;11.60;2.05;;;10.50;94.10;;;;;;2108019;28;20012;-94
2022/02/17 02:09:53;;;;;;;8.75;2.03;;;10.50;94.00;;;;;;2108545;28;20045;-93
2022/02/17 02:11:13;;;;;;;11.20;2.13;;;10.50;94.00;;;;;;2101218;28;20044;-95
2022/02/17 02:12:33;;;;;;;14.02;2.47;;;10.50;94.00;;;;;;2092813;28;20073;-94
2022/02/17 02:13:52;;;;;;;12.10;2.53;;;10.60;94.00;;;;;;2089159;28;20046;-94
2022/02/17 02:15:14;;;;;;;13.20;3.08;;;10.60;94.00;;;;;;2094107;28;20045;-94
2022/02/17 02:16:33;;;;;;;13.75;2.78;;;10.60;94.00;;;;;;2082841;28;20094;-95
2022/02/17 02:17:52;;;;;;;16.23;2.95;;;10.60;94.00;;;;;;2090662;28;20037;-96
2022/02/17 02:19:12;;;;;;;13.73;2.30;;;10.60;94.30;;;;;;2099138;28;20040;-94
2022/02/17 02:20:31;;;;;;;12.80;2.80;;;10.60;94.10;;;;;;2092542;28;20505;-94
2022/02/17 02:21:51;;;;;;;15.07;2.70;;;10.60;94.10;;;;;;2089094;28;20040;-95
2022/02/17 02:23:10;;;;;;;13.45;2.63;;;10.60;94.10;;;;;;2086122;28;20049;-95
2022/02/17 02:24:30;;;;;;;13.50;2.75;;;10.60;94.10;;;;;;2071967;28;20050;-95
2022/02/17 02:25:51;;;;;;;14.75;3.15;;;10.60;94.10;;;;;;2093186;28;20048;-94
2022/02/17 02:27:15;;;;;;;12.05;2.60;;;10.60;94.10;;;;;;2100039;28;20037;-95
2022/02/17 02:28:34;;;;;;;17.45;3.45;;;10.70;94.10;;;;;;2100362;28;20037;-96
2022/02/17 02:29:55;;;;;;;18.13;3.35;;;10.60;94.00;;;;;;2087478;28;20036;-94
2022/02/17 02:31:14;;;;;;;19.45;3.58;;;10.60;94.00;;;;;;2098013;28;20032;-94
2022/02/17 02:32:34;;;;;;;15.48;3.75;;;10.70;94.00;;;;;;2084363;28;20053;-95
2022/02/17 02:33:54;;;;;;;13.35;3.00;;;10.70;94.00;;;;;;2094248;28;20032;-94
2022/02/17 02:35:13;;;;;;;15.85;3.42;;;10.60;94.00;;;;;;2099365;28;20040;-96
2022/02/17 02:36:32;;;;;;;14.50;3.05;;;10.60;93.90;;;;;;2100754;28;20455;-95
2022/02/17 02:37:51;;;;;;;15.20;3.33;;;10.60;93.90;;;;;;2098321;28;20044;-94
2022/02/17 02:39:11;;;;;;;13.30;2.97;;;10.60;93.90;;;;;;2083463;28;20045;-96
2022/02/17 02:40:30;;;;;;;18.05;3.13;;;10.60;93.90;;;;;;2083423;28;20076;-95
2022/02/17 02:41:49;;;;;;;18.42;3.58;;;10.60;93.80;;;;;;2093944;28;20029;-95
2022/02/17 02:43:09;;;;;;;12.35;2.83;;;10.60;93.80;;;;;;2082402;28;20495;-94
2022/02/17 02:44:28;;;;;;;14.85;3.08;;;10.60;93.80;;;;;;2081112;28;20037;-95
2022/02/17 02:45:48;;;;;;;14.17;3.03;;;10.60;93.80;;;;;;2089240;28;20033;-95
2022/02/17 02:47:07;;;;;;;12.52;2.50;;;10.60;93.70;;;;;;2088709;28;20248;-94
2022/02/17 02:48:27;;;;;;;12.90;2.80;;;10.60;93.70;;;;;;2081983;28;20435;-94
2022/02/17 02:49:46;;;;;;;13.07;3.08;;;10.50;93.50;;;;;;2082936;28;20470;-94
2022/02/17 02:51:05;;;;;;;14.93;2.80;;;10.50;93.50;;;;;;2088459;28;20439;-93
2022/02/17 02:52:25;;;;;;;13.70;2.75;;;10.60;93.50;;;;;;2085187;28;20064;-96
2022/02/17 02:53:46;;;;;;;13.65;2.53;;;10.50;93.10;;;;;;2080316;28;20105;-95
2022/02/17 02:55:06;;;;;;;14.38;3.00;;;10.50;93.00;;;;;;2063903;28;20038;-95
2022/02/17 02:56:30;;;;;;;15.80;2.75;;;10.50;92.90;;;;;;2075585;28;20045;-95
2022/02/17 02:57:49;;;;;;;10.15;1.83;;;10.50;93.10;;;;;;2086002;28;20041;-94
2022/02/17 02:59:09;;;;;;;10.75;2.05;;;10.50;92.90;;;;;;2096773;28;20462;-94
2022/02/17 03:00:28;;;;;;;14.23;2.28;;;10.50;92.80;;;;;;2100004;28;20025;-95
2022/02/17 03:01:48;;;;;;;15.05;2.60;;;10.40;92.50;;;;;;2089505;28;20037;-94
2022/02/17 03:03:07;;;;;;;11.40;2.13;;;10.40;92.50;;;;;;2077517;28;20038;-93
2022/02/17 03:04:26;;;;;;;8.85;2.03;;;10.40;92.60;;;;;;2087833;28;20037;-94
2022/02/17 03:05:46;;;;;;;7.95;2.08;;;10.40;92.70;;;;;;2070996;28;20051;-94
2022/02/17 03:07:05;;;;;;;14.13;2.85;;;10.40;92.60;;;;;;2091216;28;20044;-93
2022/02/17 03:08:24;;;;;;;10.95;2.10;;;10.40;92.50;;;;;;2084654;28;20499;-94
2022/02/17 03:09:44;;;;;;;13.27;2.33;;;10.40;92.50;;;;;;2067499;28;20047;-94
2022/02/17 03:11:03;;;;;;;11.73;2.40;;;10.40;92.50;;;;;;2062647;28;20038;-93
2022/02/17 03:12:23;;;;;;;11.52;2.10;;;10.40;92.50;;;;;;2064796;28;20046;-94
2022/02/17 03:13:42;;;;;;;11.60;2.28;;;10.40;92.40;;;;;;2065729;28;20038;-94
2022/02/17 03:15:03;;;;;;;14.50;2.40;;;10.40;92.40;;;;;;2060486;28;20039;-93
2022/02/17 03:16:23;;;;;;;12.27;2.38;;;10.30;92.40;;;;;;2061253;28;20038;-95
2022/02/17 03:17:43;;;;;;;11.65;2.20;;;10.30;92.20;;;;;;2064862;28;20030;-94
2022/02/17 03:19:02;;;;;;;14.50;2.13;;;10.30;92.30;;;;;;2057380;28;20088;-93
2022/02/17 03:20:21;;;;;;;10.52;2.10;;;10.30;92.30;;;;;;2072578;28;20046;-95
2022/02/17 03:21:40;;;;;;;10.60;2.25;;;10.30;92.10;;;;;;2058280;28;20125;-93
2022/02/17 03:23:00;;;;;;;13.15;2.40;;;10.30;92.10;;;;;;2061220;28;20038;-94
2022/02/17 03:24:19;;;;;;;12.40;2.35;;;10.30;91.90;;;;;;2061370;28;20038;-95
2022/02/17 03:25:38;;;;;;;15.00;2.70;;;10.30;92.00;;;;;;2044489;29;20482;-93
2022/02/17 03:26:58;;;;;;;11.02;2.30;;;10.30;91.50;;;;;;2053877;28;20043;-94
2022/02/17 03:28:17;;;;;;;12.77;2.53;;;10.20;91.60;;;;;;2060501;28;20039;-94
2022/02/17 03:29:36;;;;;;;12.65;2.28;;;10.20;91.20;;;;;;2067845;28;20469;-93
2022/02/17 03:30:56;;;;;;;12.52;3.00;;;10.20;90.60;;;;;;2059880;28;20038;-94
2022/02/17 03:32:15;;;;;;;12.98;2.47;;;10.20;90.70;;;;;;2055333;28;20035;-94
2022/02/17 03:33:34;;;;;;;12.30;2.10;;;10.20;90.50;;;;;;2049811;28;20079;-93
2022/02/17 03:34:53;;;;;;;13.45;2.45;;;10.20;90.00;;;;;;2057400;28;20042;-95
2022/02/17 03:36:13;;;;;;;13.57;2.40;;;10.10;90.10;;;;;;2092676;28;20037;-94
2022/02/17 03:37:32;;;;;;;12.23;2.20;;;10.10;89.90;;;;;;2075015;28;20050;-94
2022/02/17 03:38:51;;;;;;;12.07;2.20;;;10.10;90.00;;;;;;2066211;28;20777;-92
2022/02/17 03:40:11;;;;;;;13.02;2.40;;;10.10;90.00;;;;;;2086427;28;20041;-94
2022/02/17 03:41:30;;;;;;;17.65;3.58;;;10.10;89.50;;;;;;2068439;28;20043;-95
2022/02/17 03:42:49;;;;;;;10.68;2.72;;;10.10;89.50;;;;;;2056555;28;20031;-96
2022/02/17 03:44:09;;;;;;;13.75;2.60;;;10.00;89.00;;;;;;2056888;28;20063;-94
2022/02/17 03:45:28;;;;;;;13.35;2.55;;;10.00;89.20;;;;;;2048012;29;20514;-94
2022/02/17 03:46:47;;;;;;;11.10;2.45;;;10.00;89.10;;;;;;2061026;28;20027;-94
2022/02/17 03:48:07;;;;;;;10.65;2.28;;;10.00;89.00;;;;;;2060422;28;20102;-94
2022/02/17 03:49:26;;;;;;;11.55;2.30;;;10.00;88.40;;;;;;2055443;28;20047;-94
2022/02/17 03:50:46;;;;;;;14.55;2.33;;;9.90;88.30;;;;;;2061845;28;20043;-95
2022/02/17 03:52:05;;;;;;;14.35;2.63;;;9.90;88.60;;;;;;2061859;28;20023;-94
2022/02/17 03:53:24;;;;;;;13.15;2.15;;;9.90;88.10;;;;;;2056842;28;20556;-93
2022/02/17 03:54:43;;;;;;;13.57;2.70;;;9.80;87.70;;;;;;2053906;28;20046;-93
2022/02/17 03:56:03;;;;;;;12.27;2.55;;;9.80;86.70;;;;;;2054836;28;20113;-93
2022/02/17 03:57:22;;;;;;;11.02;2.50;;;9.80;86.70;;;;;;2061263;28;20440;-92
2022/02/17 04:00:20;;;;;;;16.45;2.50;;;9.80;86.90;;;;;;2057440;28;20043;-92
2022/02/17 04:01:39;;;;;;;14.05;2.78;;;9.80;87.20;;;;;;2058252;28;20034;-93
2022/02/17 04:03:02;;;;;;;15.05;2.70;;;9.70;87.10;;;;;;2057012;28;20039;-94
2022/02/17 04:04:22;;;;;;;10.13;2.47;;;9.70;86.40;;;;;;2060995;28;20034;-94
2022/02/17 04:05:41;;;;;;;10.27;2.22;;;9.80;87.20;;;;;;2047235;28;20103;-94
2022/02/17 04:07:01;;;;;;;8.38;2.03;;;9.70;87.00;;;;;;2044362;28;20051;-93
2022/02/17 04:08:20;;;;;;;10.23;1.95;;;9.80;87.50;;;;;;2047499;28;20063;-93
2022/02/17 04:09:39;;;;;;;12.85;2.50;;;9.70;87.60;;;;;;2048749;28;20043;-94
2022/02/17 04:11:02;;;;;;;11.75;2.10;;;9.70;86.30;;;;;;2049584;28;20115;-93
2022/02/17 04:12:21;;;;;;;10.52;2.25;;;9.70;86.80;;;;;;2040940;28;20040;-93
2022/02/17 04:13:40;;;;;;;10.63;2.50;;;9.70;87.10;;;;;;2051257;28;20042;-93
2022/02/17 04:15:00;;;;;;;10.27;2.08;;;9.70;87.00;;;;;;2064054;28;20042;-93
2022/02/17 04:16:20;;;;;;;13.40;2.33;;;9.70;87.10;;;;;;2056492;28;20039;-93
2022/02/17 04:17:39;;;;;;;14.05;2.78;;;9.70;86.70;;;;;;2045946;28;20051;-93
2022/02/17 04:18:58;;;;;;;12.98;2.40;;;9.70;86.50;;;;;;2057190;28;20046;-93
2022/02/17 04:20:17;;;;;;;12.18;2.45;;;9.70;86.50;;;;;;2081400;28;20471;-93
2022/02/17 04:21:37;;;;;;;12.88;2.50;;;9.70;86.40;;;;;;2061267;28;20501;-94
2022/02/17 04:22:56;;;;;;;13.38;2.50;;;9.70;86.30;;;;;;2057500;28;20039;-93
2022/02/17 04:24:15;;;;;;;9.90;2.38;;;9.80;86.60;;;;;;2092272;28;20048;-94
2022/02/17 04:25:34;;;;;;;9.07;1.95;;;9.80;86.90;;;;;;2057531;28;20035;-93
2022/02/17 04:26:54;;;;;;;9.32;2.00;;;9.80;87.20;;;;;;2056539;28;20560;-93
2022/02/17 04:28:13;;;;;;;11.82;2.20;;;9.70;87.20;;;;;;2060043;28;20043;-93
2022/02/17 04:29:33;;;;;;;9.93;2.58;;;9.70;87.20;;;;;;2057193;28;20042;-92
2022/02/17 04:30:52;;;;;;;11.68;2.00;;;9.70;87.40;;;;;;2063659;28;20030;-92
2022/02/17 04:32:11;;;;;;;10.93;2.28;;;9.80;86.90;;;;;;2069272;28;20058;-92
2022/02/17 04:33:31;;;;;;;11.00;2.22;;;9.70;87.10;;;;;;2049074;28;20039;-92
2022/02/17 04:34:50;;;;;;;12.15;2.55;;;9.80;87.10;;;;;;2045664;28;20059;-92
2022/02/17 04:36:09;;;;;;;10.80;2.13;;;9.80;86.60;;;;;;2041109;28;20039;-92
2022/02/17 04:37:28;;;;;;;12.50;2.38;;;9.80;86.90;;;;;;2048084;28;20587;-93
2022/02/17 04:38:48;;;;;;;10.70;2.45;;;9.80;87.00;;;;;;2050343;28;20533;-92
2022/02/17 04:40:07;;;;;;;11.57;2.47;;;9.80;86.80;;;;;;2053201;28;20086;-93
2022/02/17 04:43:05;;;;;;;9.80;2.40;;;9.80;86.90;;;;;;2055892;28;20047;-92
2022/02/17 04:44:24;;;;;;;16.67;2.83;;;9.80;86.90;;;;;;2049909;28;20047;-91
2022/02/17 04:45:43;;;;;;;13.35;2.50;;;9.80;86.60;;;;;;2045389;29;20035;-92
2022/02/17 04:47:04;;;;;;;14.95;2.88;;;9.80;86.50;;;;;;2054438;28;20051;-92
2022/02/17 04:48:23;;;;;;;12.40;2.50;;;9.90;86.30;;;;;;2056757;28;20043;-92
2022/02/17 04:49:42;;;;;;;11.98;2.10;;;9.90;86.40;;;;;;2062492;28;20046;-93
2022/02/17 04:51:03;;;;;;;9.00;2.22;;;9.90;86.40;;;;;;2061789;28;20043;-93
2022/02/17 04:52:22;;;;;;;12.00;2.25;;;9.90;86.50;;;;;;2063722;28;20038;-93
2022/02/17 04:53:42;;;;;;;12.32;2.63;;;9.90;86.50;;;;;;2053102;29;20043;-93
2022/02/17 04:55:01;;;;;;;10.95;2.50;;;9.90;86.60;;;;;;2059765;28;20050;-92
2022/02/17 04:56:21;;;;;;;11.32;2.50;;;9.90;86.80;;;;;;2053587;28;20044;-92
2022/02/17 04:57:40;;;;;;;10.70;2.58;;;9.90;86.60;;;;;;2061309;28;20038;-92
2022/02/17 04:58:59;;;;;;;12.57;2.75;;;9.90;86.80;;;;;;2090926;28;20033;-93
2022/02/17 05:00:18;;;;;;;10.65;2.58;;;9.90;86.40;;;;;;2076521;28;20078;-92
2022/02/17 05:01:38;;;;;;;14.13;2.80;;;9.90;86.30;;;;;;2050549;28;20039;-93
2022/02/17 05:02:57;;;;;;;12.98;2.65;;;9.90;86.20;;;;;;2051487;28;20135;-93
2022/02/17 05:04:16;;;;;;;13.50;2.50;;;9.90;86.10;;;;;;2055617;28;20046;-91
2022/02/17 05:05:35;;;;;;;10.73;2.45;;;9.90;86.20;;;;;;2056169;28;20039;-91
2022/02/17 05:06:54;;;;;;;12.63;2.35;;;9.90;86.40;;;;;;2062453;28;20451;-92
2022/02/17 05:08:14;;;;;;;16.13;3.63;;;9.90;86.10;;;;;;2052341;28;20051;-93
2022/02/17 05:09:33;;;;;;;12.52;2.78;;;9.90;85.90;;;;;;2055565;28;20050;-91
2022/02/17 05:10:52;;;;;;;13.57;2.55;;;9.90;86.10;;;;;;2056459;28;20039;-92
2022/02/17 05:12:11;;;;;;;13.07;2.88;;;9.90;85.80;;;;;;2057384;28;20443;-93
2022/02/17 05:13:32;;;;;;;12.20;2.53;;;9.90;86.00;;;;;;2063325;28;20046;-91
2022/02/17 05:14:51;;;;;;;15.63;3.28;;;9.80;85.40;;;;;;2059336;28;20039;-92
2022/02/17 05:16:10;;;;;;;11.80;2.35;;;9.80;85.10;;;;;;2057955;28;20043;-92
2022/02/17 05:17:30;;;;;;;15.77;2.95;;;9.80;85.30;;;;;;2056852;28;20458;-92
2022/02/17 05:18:49;;;;;;;15.27;3.00;;;9.80;85.60;;;;;;2065916;28;20031;-92
2022/02/17 05:20:09;;;;;;;14.85;2.95;;;9.80;85.60;;;;;;2057906;28;20051;-92
2022/02/17 05:21:28;;;;;;;14.68;2.85;;;9.80;86.00;;;;;;2041687;28;20035;-92
2022/02/17 05:22:47;;;;;;;14.10;2.78;;;9.80;86.20;;;;;;2054217;28;20117;-92
2022/02/17 05:24:06;;;;;;;12.13;2.38;;;9.70;87.00;;;;;;2059588;28;20498;-92
2022/02/17 05:25:26;;;;;;;15.65;2.83;;;9.70;86.40;;;;;;2058417;28;20042;-93
2022/02/17 05:26:45;;;;;;;13.32;3.13;;;9.70;86.70;;;;;;2090095;28;20052;-92
2022/02/17 05:28:05;;;;;;;12.98;2.63;;;9.70;86.60;;;;;;2073750;28;20040;-92
2022/02/17 05:29:24;;;;;;;13.13;2.67;;;9.70;86.70;;;;;;2053104;28;20043;-92
2022/02/17 05:30:44;;;;;;;11.43;2.55;;;9.70;86.80;;;;;;2061711;28;20091;-93
2022/02/17 05:32:03;;;;;;;13.15;2.55;;;9.60;86.80;;;;;;2059656;28;20078;-92
2022/02/17 05:33:23;;;;;;;14.05;3.03;;;9.70;86.80;;;;;;2055019;28;20039;-92
2022/02/17 05:34:42;;;;;;;13.73;2.72;;;9.60;86.80;;;;;;2056939;28;20031;-93
2022/02/17 05:36:01;;;;;;;14.18;2.83;;;9.60;86.80;;;;;;2098897;28;20032;-93
2022/02/17 05:37:20;;;;;;;15.55;2.95;;;9.60;87.10;;;;;;2073449;28;20077;-91
2022/02/17 05:38:39;;;;;;;20.50;3.05;;;9.60;87.60;;;;;;2060462;28;20039;-93
2022/02/17 05:39:58;;;;;;;17.33;3.50;;;9.60;88.00;;;;;;2059399;28;20038;-94
2022/02/17 05:41:18;;;;;;;15.43;2.92;;;9.50;88.40;;;;;;2075499;28;20042;-93
2022/02/17 05:42:37;;;;;;;16.10;2.67;;;9.30;88.50;;;;;;2067375;28;20050;-93
2022/02/17 05:43:57;;;;;;;12.90;2.50;;;9.10;88.80;;;;;;2066102;28;20054;-93
2022/02/17 05:45:16;;;;;;;15.55;2.55;;;9.00;89.40;;;;;;2054804;28;20121;-93
2022/02/17 05:46:35;;;;;;;7.00;1.70;;;8.90;89.90;;;;;;2077378;28;20479;-93
2022/02/17 05:47:56;;;;;;;13.13;1.85;;;8.80;90.10;;;;;;2082452;28;20037;-91
2022/02/17 05:49:15;;;;;;;10.25;2.20;;;8.60;90.60;;;;;;2046369;28;20044;-93
2022/02/17 05:50:34;;;;;;;12.20;2.22;;;8.50;90.40;;;;;;2046540;28;20039;-92
2022/02/17 05:51:53;;;;;;;10.95;2.03;;;8.50;90.60;;;;;;2070166;28;20512;-93
2022/02/17 05:53:13;;;;;;;8.27;1.95;;;8.40;90.70;;;;;;2089129;28;20049;-93
2022/02/17 05:54:32;;;;;;;10.07;1.88;;;8.40;90.80;;;;;;2054364;28;20052;-92
2022/02/17 05:55:51;;;;;;;8.52;1.63;;;8.30;90.80;;;;;;2076695;28;20420;-92
2022/02/17 05:57:10;;;;;;;7.55;1.70;;;8.30;90.90;;;;;;2066172;28;20046;-92
2022/02/17 05:58:29;;;;;;;8.52;1.70;;;8.20;90.90;;;;;;2049981;28;20032;-92
2022/02/17 05:59:49;;;;;;;8.10;1.90;;;8.30;91.00;;;;;;2057815;28;20046;-92
2022/02/17 06:01:08;;;;;;;9.52;2.25;;;8.20;91.10;;;;;;2053690;28;20444;-92
2022/02/17 06:02:28;;;;;;;11.40;2.28;;;8.20;91.20;;;;;;2060614;28;20043;-92
2022/02/17 06:03:46;;;;;;;11.35;1.77;;;8.20;91.30;;;;;;2091361;28;20041;-94
2022/02/17 06:05:06;;;;;;;11.70;1.95;;;8.20;91.30;;;;;;2068716;28;20047;-94
2022/02/17 06:06:26;;;;;;;13.48;2.40;;;8.10;91.30;;;;;;2064476;28;20061;-93
2022/02/17 06:07:46;;;;;;;13.38;2.25;;;8.10;91.40;;;;;;2054248;28;20031;-90
2022/02/17 06:09:05;;;;;;;11.40;1.92;;;8.10;91.40;;;;;;2064310;28;20047;-92
2022/02/17 06:10:25;;;;;;;9.38;2.03;;;8.10;91.40;;;;;;2056639;28;20039;-92
2022/02/17 06:11:44;;;;;;;11.35;2.33;;;8.10;91.40;;;;;;2054355;28;20039;-92
2022/02/17 06:13:03;;;;;;;10.73;2.08;;;8.10;91.40;;;;;;2030620;29;20036;-92
2022/02/17 06:14:22;;;;;;;11.80;2.22;;;8.10;91.30;;;;;;2041429;29;20487;-93
2022/02/17 06:15:42;;;;;;;9.30;1.92;;;8.10;91.20;;;;;;2054425;28;20043;-93
2022/02/17 06:17:02;;;;;;;12.70;2.28;;;8.10;91.20;;;;;;2061721;28;20046;-92
2022/02/17 06:18:21;;;;;;;13.98;2.45;;;8.10;91.20;;;;;;2065896;28;20050;-92
2022/02/17 06:19:41;;;;;;;12.32;2.03;;;8.10;91.30;;;;;;2057444;28;20051;-93
2022/02/17 06:21:00;;;;;;;12.32;2.05;;;8.10;91.00;;;;;;2057917;28;20043;-91
2022/02/17 06:22:19;;;;;;;11.82;2.67;;;8.10;91.00;;;;;;2058990;28;20063;-92
2022/02/17 06:23:38;;;;;;;10.35;2.20;;;8.20;91.00;;;;;;2058795;28;20038;-93
2022/02/17 06:24:58;;;;;;;11.10;1.98;;;8.20;90.90;;;;;;2064907;28;20034;-91
2022/02/17 06:26:18;;;;;;;9.57;1.70;;;8.20;90.90;;;;;;2063463;28;20122;-91
2022/02/17 06:27:37;;;;;;;13.32;2.15;;;8.20;90.90;;;;;;2053127;28;20071;-91
2022/02/17 06:28:58;;;;;;;8.15;1.65;;;8.20;90.80;;;;;;2044262;28;20031;-90
2022/02/17 06:30:19;;;;;;;9.18;1.88;;;8.20;90.80;;;;;;2045369;28;20094;-92
2022/02/17 06:31:39;;;;;;;13.05;2.25;;;8.20;90.80;;;;;;2043217;28;20043;-91
2022/02/17 06:32:59;;;;;;;17.58;2.13;;;8.20;90.70;;;;;;2057738;28;20110;-91
2022/02/17 06:34:18;;;;;;;10.75;1.77;;;8.30;90.70;;;;;;2062305;28;20042;-91
2022/02/17 06:35:38;;;;;;;9.57;2.22;;;8.30;90.70;;;;;;2063544;28;20440;-90
2022/02/17 06:36:57;;;;;;;8.38;2.10;;;8.30;90.70;;;;;;2064867;28;20756;-92
2022/02/17 06:38:17;;;;;;;11.65;2.28;;;8.30;90.70;;;;;;2056429;28;20118;-91
2022/02/17 06:39:36;;;;;;;11.18;2.28;;;8.20;90.60;;;;;;2062096;28;20118;-90
2022/02/17 06:40:55;;;;;;;14.02;2.00;;;8.30;90.50;;;;;;2063842;28;20030;-90
2022/02/17 06:42:15;;;;;;;9.10;2.10;;;8.30;90.40;;;;;;2064033;28;20473;-91
2022/02/17 06:43:36;;;;;;;14.00;2.75;;;8.30;90.10;;;;;;2082594;28;20087;-91
2022/02/17 06:44:57;;;;;;;12.35;2.08;;;8.30;89.40;;;;;;2061788;28;20043;-91
2022/02/17 06:46:16;;;;;;;12.43;2.30;;;8.30;89.10;;;;;;2058303;28;20051;-92
2022/02/17 06:47:35;;;;;;;8.70;1.80;;;8.40;88.90;;;;;;2054729;28;20027;-91
2022/02/17 06:48:55;;;;;;;9.68;1.80;;;8.40;87.60;;;;;;2049609;28;20059;-91
2022/02/17 06:50:15;;;;;;;6.90;1.55;;;8.40;88.00;;;;;;2059420;28;20078;-91
2022/02/17 06:51:34;;;;;;;9.40;1.73;;;8.40;88.50;;;;;;2059987;28;20038;-92
2022/02/17 06:52:54;;;;;;;6.65;1.60;;;8.40;88.10;;;;;;2052829;28;20043;-91
2022/02/17 06:54:13;;;;;;;9.27;1.70;;;8.50;88.10;;;;;;2094628;28;20041;-91
2022/02/17 06:55:34;;;;;;;9.85;1.65;;;8.40;88.00;;;;;;2080382;28;20031;-91
2022/02/17 06:56:53;;;;;;;;;;;8.50;88.10;;;;;;2055662;28;20067;-91